sensor_id;sensor_type;location;lat;lon;timestamp;pressure;altitude;pressure_sealevel;temperature;humidity
59194;BME280;44967;48.598;15.650;2023-09-07T00:02:18;98864.25;;;14.27;76.97
59194;BME280;44967;48.598;15.650;2023-09-07T00:04:44;98870.25;;;14.34;76.73
59194;BME280;44967;48.598;15.650;2023-09-07T00:07:09;98869.53;;;14.29;76.90
59194;BME280;44967;48.598;15.650;2023-09-07T00:09:35;98867.91;;;14.25;76.73
59194;BME280;44967;48.598;15.650;2023-09-07T00:12:01;98861.97;;;14.18;76.70
59194;BME280;44967;48.598;15.650;2023-09-07T00:14:26;98855.97;;;14.11;77.23
59194;BME280;44967;48.598;15.650;2023-09-07T00:16:52;98860.81;;;14.00;77.46
59194;BME280;44967;48.598;15.650;2023-09-07T00:19:17;98863.00;;;13.88;77.49
59194;BME280;44967;48.598;15.650;2023-09-07T00:21:43;98862.97;;;13.89;77.83
59194;BME280;44967;48.598;15.650;2023-09-07T00:24:09;98857.34;;;13.98;77.19
59194;BME280;44967;48.598;15.650;2023-09-07T00:26:36;98852.78;;;14.02;77.83
59194;BME280;44967;48.598;15.650;2023-09-07T00:29:01;98855.66;;;13.96;78.17
59194;BME280;44967;48.598;15.650;2023-09-07T00:31:27;98860.00;;;13.98;78.02
59194;BME280;44967;48.598;15.650;2023-09-07T00:33:53;98858.09;;;14.02;76.85
59194;BME280;44967;48.598;15.650;2023-09-07T00:36:19;98856.69;;;13.92;78.03
59194;BME280;44967;48.598;15.650;2023-09-07T00:38:44;98853.16;;;13.91;77.97
59194;BME280;44967;48.598;15.650;2023-09-07T00:41:12;98857.69;;;13.88;78.19
59194;BME280;44967;48.598;15.650;2023-09-07T00:43:38;98855.91;;;13.88;77.79
59194;BME280;44967;48.598;15.650;2023-09-07T00:46:07;98857.66;;;13.63;79.09
59194;BME280;44967;48.598;15.650;2023-09-07T00:48:32;98852.19;;;13.67;78.71
59194;BME280;44967;48.598;15.650;2023-09-07T00:50:59;98846.25;;;13.61;79.21
59194;BME280;44967;48.598;15.650;2023-09-07T00:53:27;98849.69;;;13.63;79.25
59194;BME280;44967;48.598;15.650;2023-09-07T00:55:55;98846.13;;;13.64;78.87
59194;BME280;44967;48.598;15.650;2023-09-07T00:58:21;98838.31;;;13.59;79.32
59194;BME280;44967;48.598;15.650;2023-09-07T01:00:47;98836.38;;;13.64;78.86
59194;BME280;44967;48.598;15.650;2023-09-07T01:03:13;98842.00;;;13.55;79.39
59194;BME280;44967;48.598;15.650;2023-09-07T01:05:46;98833.47;;;13.46;79.95
59194;BME280;44967;48.598;15.650;2023-09-07T01:08:22;98841.63;;;13.40;80.14
59194;BME280;44967;48.598;15.650;2023-09-07T01:10:49;98838.97;;;13.40;80.01
59194;BME280;44967;48.598;15.650;2023-09-07T01:13:14;98848.56;;;13.44;80.08
59194;BME280;44967;48.598;15.650;2023-09-07T01:15:40;98839.66;;;13.46;79.87
59194;BME280;44967;48.598;15.650;2023-09-07T01:18:06;98846.75;;;13.46;80.39
59194;BME280;44967;48.598;15.650;2023-09-07T01:20:34;98843.22;;;13.45;80.41
59194;BME280;44967;48.598;15.650;2023-09-07T01:23:02;98838.94;;;13.41;79.67
59194;BME280;44967;48.598;15.650;2023-09-07T01:25:28;98841.22;;;13.26;80.36
59194;BME280;44967;48.598;15.650;2023-09-07T01:27:54;98839.44;;;13.26;81.02
59194;BME280;44967;48.598;15.650;2023-09-07T01:30:20;98841.13;;;13.29;80.54
59194;BME280;44967;48.598;15.650;2023-09-07T01:32:46;98841.22;;;13.26;80.73
59194;BME280;44967;48.598;15.650;2023-09-07T01:35:14;98844.47;;;13.35;80.50
59194;BME280;44967;48.598;15.650;2023-09-07T01:37:42;98844.03;;;13.21;80.84
59194;BME280;44967;48.598;15.650;2023-09-07T01:40:08;98833.63;;;13.15;81.68
59194;BME280;44967;48.598;15.650;2023-09-07T01:42:33;98841.41;;;13.19;81.83
59194;BME280;44967;48.598;15.650;2023-09-07T01:44:59;98844.00;;;13.23;81.17
59194;BME280;44967;48.598;15.650;2023-09-07T01:47:26;98846.03;;;13.14;81.43
59194;BME280;44967;48.598;15.650;2023-09-07T01:49:51;98845.16;;;13.14;81.42
59194;BME280;44967;48.598;15.650;2023-09-07T01:52:17;98837.91;;;13.19;81.63
59194;BME280;44967;48.598;15.650;2023-09-07T01:54:42;98840.94;;;13.07;82.03
59194;BME280;44967;48.598;15.650;2023-09-07T01:57:08;98842.59;;;13.09;81.81
59194;BME280;44967;48.598;15.650;2023-09-07T01:59:33;98838.97;;;13.13;81.36
59194;BME280;44967;48.598;15.650;2023-09-07T02:01:59;98845.81;;;13.20;81.65
59194;BME280;44967;48.598;15.650;2023-09-07T02:04:25;98843.78;;;13.29;81.26
59194;BME280;44967;48.598;15.650;2023-09-07T02:06:50;98848.97;;;13.32;81.87
59194;BME280;44967;48.598;15.650;2023-09-07T02:09:16;98849.09;;;13.29;80.72
59194;BME280;44967;48.598;15.650;2023-09-07T02:11:42;98850.22;;;13.21;82.18
59194;BME280;44967;48.598;15.650;2023-09-07T02:14:08;98855.41;;;13.25;81.59
59194;BME280;44967;48.598;15.650;2023-09-07T02:16:34;98851.34;;;13.13;81.90
59194;BME280;44967;48.598;15.650;2023-09-07T02:19:02;98850.56;;;13.11;82.56
59194;BME280;44967;48.598;15.650;2023-09-07T02:21:29;98844.44;;;13.07;82.43
59194;BME280;44967;48.598;15.650;2023-09-07T02:23:54;98845.47;;;13.03;82.43
59194;BME280;44967;48.598;15.650;2023-09-07T02:26:20;98848.91;;;13.05;82.52
59194;BME280;44967;48.598;15.650;2023-09-07T02:28:45;98854.19;;;13.07;82.59
59194;BME280;44967;48.598;15.650;2023-09-07T02:31:11;98849.94;;;13.01;82.33
59194;BME280;44967;48.598;15.650;2023-09-07T02:33:37;98851.56;;;13.05;82.37
59194;BME280;44967;48.598;15.650;2023-09-07T02:36:02;98849.94;;;13.01;82.46
59194;BME280;44967;48.598;15.650;2023-09-07T02:38:29;98855.25;;;13.01;82.56
59194;BME280;44967;48.598;15.650;2023-09-07T02:40:55;98851.78;;;12.99;83.08
59194;BME280;44967;48.598;15.650;2023-09-07T02:43:21;98859.56;;;13.04;82.62
59194;BME280;44967;48.598;15.650;2023-09-07T02:45:48;98851.28;;;12.87;83.47
59194;BME280;44967;48.598;15.650;2023-09-07T02:48:15;98859.03;;;12.93;83.13
59194;BME280;44967;48.598;15.650;2023-09-07T02:50:41;98853.69;;;12.94;83.23
59194;BME280;44967;48.598;15.650;2023-09-07T02:53:08;98853.81;;;12.91;83.47
59194;BME280;44967;48.598;15.650;2023-09-07T02:55:34;98849.38;;;12.92;83.04
59194;BME280;44967;48.598;15.650;2023-09-07T02:58:02;98855.50;;;12.92;82.96
59194;BME280;44967;48.598;15.650;2023-09-07T03:00:28;98850.13;;;12.95;81.98
59194;BME280;44967;48.598;15.650;2023-09-07T03:02:54;98857.25;;;12.93;82.77
59194;BME280;44967;48.598;15.650;2023-09-07T03:05:20;98846.91;;;12.84;83.43
59194;BME280;44967;48.598;15.650;2023-09-07T03:07:46;98856.75;;;12.81;82.96
59194;BME280;44967;48.598;15.650;2023-09-07T03:10:13;98849.09;;;12.71;82.97
59194;BME280;44967;48.598;15.650;2023-09-07T03:12:39;98855.69;;;12.58;83.80
59194;BME280;44967;48.598;15.650;2023-09-07T03:15:05;98860.94;;;12.60;84.47
59194;BME280;44967;48.598;15.650;2023-09-07T03:17:31;98854.47;;;12.68;84.49
59194;BME280;44967;48.598;15.650;2023-09-07T03:19:57;98846.47;;;12.70;83.99
59194;BME280;44967;48.598;15.650;2023-09-07T03:22:23;98847.41;;;12.69;84.21
59194;BME280;44967;48.598;15.650;2023-09-07T03:24:52;98849.91;;;12.73;83.55
59194;BME280;44967;48.598;15.650;2023-09-07T03:27:18;98844.88;;;12.64;84.20
59194;BME280;44967;48.598;15.650;2023-09-07T03:29:44;98860.94;;;12.60;84.60
59194;BME280;44967;48.598;15.650;2023-09-07T03:32:10;98853.66;;;12.66;84.14
59194;BME280;44967;48.598;15.650;2023-09-07T03:34:36;98855.41;;;12.67;83.42
59194;BME280;44967;48.598;15.650;2023-09-07T03:37:01;98864.25;;;12.68;83.69
59194;BME280;44967;48.598;15.650;2023-09-07T03:39:27;98860.13;;;12.56;84.11
59194;BME280;44967;48.598;15.650;2023-09-07T03:41:53;98862.72;;;12.59;84.50
59194;BME280;44967;48.598;15.650;2023-09-07T03:44:19;98866.28;;;12.58;84.69
59194;BME280;44967;48.598;15.650;2023-09-07T03:46:45;98867.16;;;12.59;84.87
59194;BME280;44967;48.598;15.650;2023-09-07T03:49:11;98867.31;;;12.53;85.26
59194;BME280;44967;48.598;15.650;2023-09-07T03:51:36;98873.47;;;12.55;85.16
59194;BME280;44967;48.598;15.650;2023-09-07T03:54:03;98876.47;;;12.43;85.60
59194;BME280;44967;48.598;15.650;2023-09-07T03:56:29;98884.31;;;12.46;85.99
59194;BME280;44967;48.598;15.650;2023-09-07T03:58:55;98878.97;;;12.47;85.97
59194;BME280;44967;48.598;15.650;2023-09-07T04:01:20;98876.97;;;12.55;85.83
59194;BME280;44967;48.598;15.650;2023-09-07T04:03:46;98877.84;;;12.56;85.00
59194;BME280;44967;48.598;15.650;2023-09-07T04:06:11;98878.50;;;12.64;84.83
59194;BME280;44967;48.598;15.650;2023-09-07T04:08:37;98884.63;;;12.66;85.42
59194;BME280;44967;48.598;15.650;2023-09-07T04:11:04;98876.78;;;12.61;84.38
59194;BME280;44967;48.598;15.650;2023-09-07T04:13:29;98883.41;;;12.47;84.06
59194;BME280;44967;48.598;15.650;2023-09-07T04:15:55;98888.22;;;12.33;85.26
59194;BME280;44967;48.598;15.650;2023-09-07T04:18:21;98878.56;;;12.32;85.29
59194;BME280;44967;48.598;15.650;2023-09-07T04:20:47;98886.50;;;12.32;85.49
59194;BME280;44967;48.598;15.650;2023-09-07T04:23:13;98889.16;;;12.32;85.35
59194;BME280;44967;48.598;15.650;2023-09-07T04:25:38;98892.78;;;12.27;85.55
59194;BME280;44967;48.598;15.650;2023-09-07T04:28:05;98888.41;;;12.26;85.58
59194;BME280;44967;48.598;15.650;2023-09-07T04:30:32;98890.88;;;12.33;85.20
59194;BME280;44967;48.598;15.650;2023-09-07T04:32:58;98892.88;;;12.24;84.79
59194;BME280;44967;48.598;15.650;2023-09-07T04:35:28;98896.38;;;12.25;84.77
59194;BME280;44967;48.598;15.650;2023-09-07T04:37:54;98891.25;;;12.19;85.44
59194;BME280;44967;48.598;15.650;2023-09-07T04:40:20;98889.41;;;12.22;85.30
59194;BME280;44967;48.598;15.650;2023-09-07T04:42:46;98882.53;;;12.15;85.76
59194;BME280;44967;48.598;15.650;2023-09-07T04:45:11;98889.28;;;12.27;85.78
59194;BME280;44967;48.598;15.650;2023-09-07T04:47:37;98893.69;;;12.26;85.86
59194;BME280;44967;48.598;15.650;2023-09-07T04:50:03;98890.88;;;12.33;85.66
59194;BME280;44967;48.598;15.650;2023-09-07T04:52:29;98882.09;;;12.31;85.37
59194;BME280;44967;48.598;15.650;2023-09-07T04:54:55;98887.06;;;12.43;85.35
59194;BME280;44967;48.598;15.650;2023-09-07T04:57:21;98890.47;;;12.48;85.64
59194;BME280;44967;48.598;15.650;2023-09-07T04:59:46;98891.41;;;12.45;85.54
59194;BME280;44967;48.598;15.650;2023-09-07T05:02:12;98896.69;;;12.45;86.34
59194;BME280;44967;48.598;15.650;2023-09-07T05:04:38;98898.19;;;12.55;85.86
59194;BME280;44967;48.598;15.650;2023-09-07T05:07:04;98897.88;;;12.66;85.63
59194;BME280;44967;48.598;15.650;2023-09-07T05:09:30;98903.91;;;12.71;85.09
59194;BME280;44967;48.598;15.650;2023-09-07T05:11:56;98899.44;;;12.73;85.31
59194;BME280;44967;48.598;15.650;2023-09-07T05:14:23;98910.81;;;12.76;85.20
59194;BME280;44967;48.598;15.650;2023-09-07T05:16:50;98911.31;;;12.89;84.52
59194;BME280;44967;48.598;15.650;2023-09-07T05:19:15;98900.56;;;12.94;84.81
59194;BME280;44967;48.598;15.650;2023-09-07T05:21:41;98908.41;;;12.98;84.90
59194;BME280;44967;48.598;15.650;2023-09-07T05:24:07;98909.97;;;13.04;84.88
59194;BME280;44967;48.598;15.650;2023-09-07T05:26:33;98904.53;;;13.08;84.39
59194;BME280;44967;48.598;15.650;2023-09-07T05:28:59;98908.94;;;13.11;84.89
59194;BME280;44967;48.598;15.650;2023-09-07T05:31:25;98914.00;;;13.18;84.47
59194;BME280;44967;48.598;15.650;2023-09-07T05:33:50;98917.53;;;13.19;84.59
59194;BME280;44967;48.598;15.650;2023-09-07T05:36:17;98916.34;;;13.28;84.92
59194;BME280;44967;48.598;15.650;2023-09-07T05:38:43;98913.41;;;13.37;84.63
59194;BME280;44967;48.598;15.650;2023-09-07T05:41:08;98912.28;;;13.44;85.30
59194;BME280;44967;48.598;15.650;2023-09-07T05:43:34;98915.56;;;13.52;85.65
59194;BME280;44967;48.598;15.650;2023-09-07T05:46:00;98917.91;;;13.62;85.17
59194;BME280;44967;48.598;15.650;2023-09-07T05:48:25;98915.75;;;13.74;84.97
59194;BME280;44967;48.598;15.650;2023-09-07T05:50:51;98922.59;;;13.81;85.05
59194;BME280;44967;48.598;15.650;2023-09-07T05:53:18;98927.53;;;13.91;84.42
59194;BME280;44967;48.598;15.650;2023-09-07T05:55:44;98924.69;;;13.97;84.19
59194;BME280;44967;48.598;15.650;2023-09-07T05:58:10;98927.19;;;14.02;84.14
59194;BME280;44967;48.598;15.650;2023-09-07T06:00:36;98924.06;;;14.15;83.83
59194;BME280;44967;48.598;15.650;2023-09-07T06:03:05;98931.00;;;14.20;83.97
59194;BME280;44967;48.598;15.650;2023-09-07T06:05:31;98922.00;;;14.24;83.83
59194;BME280;44967;48.598;15.650;2023-09-07T06:07:57;98930.81;;;14.26;83.86
59194;BME280;44967;48.598;15.650;2023-09-07T06:10:22;98927.16;;;14.28;83.48
59194;BME280;44967;48.598;15.650;2023-09-07T06:12:48;98927.91;;;14.32;83.83
59194;BME280;44967;48.598;15.650;2023-09-07T06:15:14;98937.44;;;14.39;84.14
59194;BME280;44967;48.598;15.650;2023-09-07T06:17:40;98932.81;;;14.44;83.61
59194;BME280;44967;48.598;15.650;2023-09-07T06:20:06;98944.03;;;14.53;83.60
59194;BME280;44967;48.598;15.650;2023-09-07T06:22:32;98933.97;;;14.61;83.01
59194;BME280;44967;48.598;15.650;2023-09-07T06:24:58;98940.69;;;14.72;83.02
59194;BME280;44967;48.598;15.650;2023-09-07T06:27:23;98940.28;;;14.82;82.65
59194;BME280;44967;48.598;15.650;2023-09-07T06:29:49;98939.03;;;14.92;82.41
59194;BME280;44967;48.598;15.650;2023-09-07T06:32:14;98947.47;;;15.03;81.35
59194;BME280;44967;48.598;15.650;2023-09-07T06:34:40;98938.09;;;15.17;80.45
59194;BME280;44967;48.598;15.650;2023-09-07T06:37:06;98930.56;;;15.28;80.09
59194;BME280;44967;48.598;15.650;2023-09-07T06:39:32;98927.75;;;15.54;78.49
59194;BME280;44967;48.598;15.650;2023-09-07T06:41:57;98928.72;;;15.73;76.69
59194;BME280;44967;48.598;15.650;2023-09-07T06:44:23;98939.88;;;15.83;76.24
59194;BME280;44967;48.598;15.650;2023-09-07T06:46:48;98935.16;;;15.89;75.43
59194;BME280;44967;48.598;15.650;2023-09-07T06:49:14;98939.94;;;16.03;74.54
59194;BME280;44967;48.598;15.650;2023-09-07T06:51:40;98941.66;;;16.24;74.23
59194;BME280;44967;48.598;15.650;2023-09-07T06:54:06;98942.00;;;16.37;73.87
59194;BME280;44967;48.598;15.650;2023-09-07T06:56:32;98940.59;;;16.48;72.52
59194;BME280;44967;48.598;15.650;2023-09-07T06:59:00;98944.97;;;16.51;72.88
59194;BME280;44967;48.598;15.650;2023-09-07T07:01:26;98943.69;;;16.60;72.66
59194;BME280;44967;48.598;15.650;2023-09-07T07:03:51;98948.63;;;16.69;72.23
59194;BME280;44967;48.598;15.650;2023-09-07T07:06:18;98949.22;;;16.75;71.62
59194;BME280;44967;48.598;15.650;2023-09-07T07:08:44;98946.34;;;16.80;72.00
59194;BME280;44967;48.598;15.650;2023-09-07T07:11:10;98947.72;;;16.88;71.86
59194;BME280;44967;48.598;15.650;2023-09-07T07:13:35;98947.59;;;16.91;71.96
59194;BME280;44967;48.598;15.650;2023-09-07T07:16:02;98936.72;;;16.96;71.53
59194;BME280;44967;48.598;15.650;2023-09-07T07:18:29;98935.28;;;17.08;70.99
59194;BME280;44967;48.598;15.650;2023-09-07T07:20:55;98936.59;;;17.18;70.61
59194;BME280;44967;48.598;15.650;2023-09-07T07:23:21;98937.00;;;17.27;69.78
59194;BME280;44967;48.598;15.650;2023-09-07T07:25:46;98933.19;;;17.33;69.88
59194;BME280;44967;48.598;15.650;2023-09-07T07:28:12;98939.75;;;17.44;69.81
59194;BME280;44967;48.598;15.650;2023-09-07T07:30:38;98937.66;;;17.51;69.74
59194;BME280;44967;48.598;15.650;2023-09-07T07:33:08;98943.47;;;17.61;68.71
59194;BME280;44967;48.598;15.650;2023-09-07T07:35:35;98939.84;;;17.62;69.44
59194;BME280;44967;48.598;15.650;2023-09-07T07:38:02;98939.59;;;17.66;69.45
59194;BME280;44967;48.598;15.650;2023-09-07T07:40:32;98937.69;;;17.87;68.51
59194;BME280;44967;48.598;15.650;2023-09-07T07:42:58;98945.97;;;18.00;68.17
59194;BME280;44967;48.598;15.650;2023-09-07T07:45:23;98934.03;;;18.07;68.27
59194;BME280;44967;48.598;15.650;2023-09-07T07:47:49;98932.38;;;18.04;67.57
59194;BME280;44967;48.598;15.650;2023-09-07T07:50:15;98932.69;;;18.15;68.29
59194;BME280;44967;48.598;15.650;2023-09-07T07:52:41;98935.13;;;18.37;67.36
59194;BME280;44967;48.598;15.650;2023-09-07T07:55:07;98930.41;;;18.42;67.05
59194;BME280;44967;48.598;15.650;2023-09-07T07:57:33;98929.81;;;18.54;66.29
59194;BME280;44967;48.598;15.650;2023-09-07T07:59:59;98924.50;;;18.70;66.15
59194;BME280;44967;48.598;15.650;2023-09-07T08:02:24;98935.59;;;18.79;65.77
59194;BME280;44967;48.598;15.650;2023-09-07T08:04:50;98936.47;;;18.80;66.00
59194;BME280;44967;48.598;15.650;2023-09-07T08:07:16;98926.91;;;18.92;65.54
59194;BME280;44967;48.598;15.650;2023-09-07T08:09:42;98927.53;;;19.12;65.21
59194;BME280;44967;48.598;15.650;2023-09-07T08:12:08;98933.44;;;19.19;65.20
59194;BME280;44967;48.598;15.650;2023-09-07T08:14:34;98933.09;;;19.41;63.74
59194;BME280;44967;48.598;15.650;2023-09-07T08:17:00;98925.88;;;19.43;63.92
59194;BME280;44967;48.598;15.650;2023-09-07T08:19:27;98918.97;;;19.54;64.04
59194;BME280;44967;48.598;15.650;2023-09-07T08:21:53;98926.47;;;19.79;62.62
59194;BME280;44967;48.598;15.650;2023-09-07T08:24:19;98928.09;;;19.97;61.09
59194;BME280;44967;48.598;15.650;2023-09-07T08:26:45;98925.81;;;20.05;61.65
59194;BME280;44967;48.598;15.650;2023-09-07T08:29:10;98925.00;;;20.19;61.03
59194;BME280;44967;48.598;15.650;2023-09-07T08:31:37;98927.34;;;20.25;60.36
59194;BME280;44967;48.598;15.650;2023-09-07T08:34:08;98925.78;;;20.51;59.59
59194;BME280;44967;48.598;15.650;2023-09-07T08:36:37;98933.94;;;20.49;59.01
59194;BME280;44967;48.598;15.650;2023-09-07T08:39:06;98925.25;;;20.74;58.33
59194;BME280;44967;48.598;15.650;2023-09-07T08:41:42;98931.91;;;20.97;56.49
59194;BME280;44967;48.598;15.650;2023-09-07T08:44:28;98925.59;;;21.12;55.23
59194;BME280;44967;48.598;15.650;2023-09-07T08:46:55;98925.09;;;21.20;55.11
59194;BME280;44967;48.598;15.650;2023-09-07T08:49:21;98929.78;;;21.30;55.32
59194;BME280;44967;48.598;15.650;2023-09-07T08:51:49;98923.63;;;21.56;55.09
59194;BME280;44967;48.598;15.650;2023-09-07T08:54:15;98923.56;;;21.71;54.64
59194;BME280;44967;48.598;15.650;2023-09-07T08:56:41;98916.06;;;21.76;53.56
59194;BME280;44967;48.598;15.650;2023-09-07T08:59:07;98921.69;;;21.99;52.99
59194;BME280;44967;48.598;15.650;2023-09-07T09:01:33;98922.81;;;22.22;52.53
59194;BME280;44967;48.598;15.650;2023-09-07T09:04:01;98927.50;;;22.45;51.25
59194;BME280;44967;48.598;15.650;2023-09-07T09:06:26;98921.00;;;22.75;49.84
59194;BME280;44967;48.598;15.650;2023-09-07T09:08:56;98923.03;;;23.22;49.77
59194;BME280;44967;48.598;15.650;2023-09-07T09:11:25;98923.84;;;23.84;46.88
59194;BME280;44967;48.598;15.650;2023-09-07T09:13:53;98916.06;;;25.41;45.03
59194;BME280;44967;48.598;15.650;2023-09-07T09:16:19;98919.25;;;27.16;40.60
59194;BME280;44967;48.598;15.650;2023-09-07T09:18:52;98925.91;;;28.51;37.42
59194;BME280;44967;48.598;15.650;2023-09-07T09:21:27;98912.63;;;29.14;35.14
59194;BME280;44967;48.598;15.650;2023-09-07T09:23:54;98921.97;;;29.76;34.32
59194;BME280;44967;48.598;15.650;2023-09-07T09:26:23;98920.06;;;30.66;32.23
59194;BME280;44967;48.598;15.650;2023-09-07T09:28:49;98917.41;;;30.39;33.17
59194;BME280;44967;48.598;15.650;2023-09-07T09:31:16;98916.56;;;31.51;31.21
59194;BME280;44967;48.598;15.650;2023-09-07T09:33:44;98914.59;;;31.61;30.72
59194;BME280;44967;48.598;15.650;2023-09-07T09:36:13;98918.22;;;31.36;31.16
59194;BME280;44967;48.598;15.650;2023-09-07T09:38:39;98911.75;;;31.45;31.63
59194;BME280;44967;48.598;15.650;2023-09-07T09:41:06;98914.66;;;31.77;31.10
59194;BME280;44967;48.598;15.650;2023-09-07T09:43:31;98914.13;;;32.24;29.03
59194;BME280;44967;48.598;15.650;2023-09-07T09:45:59;98901.75;;;31.96;29.39
59194;BME280;44967;48.598;15.650;2023-09-07T09:48:27;98904.81;;;32.01;28.78
59194;BME280;44967;48.598;15.650;2023-09-07T09:50:53;98902.41;;;31.98;29.03
59194;BME280;44967;48.598;15.650;2023-09-07T09:53:19;98901.50;;;32.39;27.72
59194;BME280;44967;48.598;15.650;2023-09-07T09:55:49;98893.28;;;32.23;28.12
59194;BME280;44967;48.598;15.650;2023-09-07T09:58:16;98889.34;;;31.67;29.49
59194;BME280;44967;48.598;15.650;2023-09-07T10:00:44;98892.69;;;31.53;29.26
59194;BME280;44967;48.598;15.650;2023-09-07T10:03:18;98885.47;;;31.44;28.95
59194;BME280;44967;48.598;15.650;2023-09-07T10:05:48;98893.78;;;31.76;28.66
59194;BME280;44967;48.598;15.650;2023-09-07T10:08:15;98892.09;;;31.42;28.92
59194;BME280;44967;48.598;15.650;2023-09-07T10:10:43;98891.25;;;31.49;28.74
59194;BME280;44967;48.598;15.650;2023-09-07T10:13:13;98884.34;;;31.55;28.90
59194;BME280;44967;48.598;15.650;2023-09-07T10:15:39;98887.47;;;31.68;28.87
59194;BME280;44967;48.598;15.650;2023-09-07T10:18:17;98886.66;;;31.50;28.79
59194;BME280;44967;48.598;15.650;2023-09-07T10:20:49;98898.56;;;31.66;28.45
59194;BME280;44967;48.598;15.650;2023-09-07T10:23:15;98883.59;;;31.87;27.77
59194;BME280;44967;48.598;15.650;2023-09-07T10:25:41;98893.31;;;32.47;26.94
59194;BME280;44967;48.598;15.650;2023-09-07T10:28:19;98889.69;;;32.31;27.12
59194;BME280;44967;48.598;15.650;2023-09-07T10:30:45;98879.09;;;31.77;26.81
59194;BME280;44967;48.598;15.650;2023-09-07T10:33:20;98885.50;;;31.52;27.07
59194;BME280;44967;48.598;15.650;2023-09-07T10:35:46;98883.00;;;31.67;27.31
59194;BME280;44967;48.598;15.650;2023-09-07T10:38:15;98890.66;;;31.55;27.34
59194;BME280;44967;48.598;15.650;2023-09-07T10:40:44;98884.25;;;31.89;27.05
59194;BME280;44967;48.598;15.650;2023-09-07T10:43:10;98883.22;;;31.40;27.15
59194;BME280;44967;48.598;15.650;2023-09-07T10:45:36;98877.09;;;31.12;28.11
59194;BME280;44967;48.598;15.650;2023-09-07T10:48:02;98880.88;;;31.19;26.93
59194;BME280;44967;48.598;15.650;2023-09-07T10:50:29;98881.66;;;30.85;27.28
59194;BME280;44967;48.598;15.650;2023-09-07T10:52:55;98875.78;;;30.72;28.27
59194;BME280;44967;48.598;15.650;2023-09-07T10:55:21;98876.97;;;30.96;27.66
59194;BME280;44967;48.598;15.650;2023-09-07T10:57:47;98868.38;;;31.08;27.47
59194;BME280;44967;48.598;15.650;2023-09-07T11:00:14;98858.03;;;31.20;26.61
59194;BME280;44967;48.598;15.650;2023-09-07T11:02:41;98860.75;;;30.68;27.82
59194;BME280;44967;48.598;15.650;2023-09-07T11:05:07;98849.84;;;30.51;28.28
59194;BME280;44967;48.598;15.650;2023-09-07T11:07:33;98866.06;;;30.52;28.06
59194;BME280;44967;48.598;15.650;2023-09-07T11:10:00;98856.84;;;30.35;28.54
59194;BME280;44967;48.598;15.650;2023-09-07T11:12:25;98865.19;;;29.99;28.05
59194;BME280;44967;48.598;15.650;2023-09-07T11:14:51;98858.56;;;29.56;28.61
59194;BME280;44967;48.598;15.650;2023-09-07T11:17:17;98855.34;;;29.70;27.57
59194;BME280;44967;48.598;15.650;2023-09-07T11:19:43;98849.81;;;29.62;28.03
59194;BME280;44967;48.598;15.650;2023-09-07T11:22:12;98852.22;;;29.65;29.81
59194;BME280;44967;48.598;15.650;2023-09-07T11:24:37;98841.56;;;29.44;28.90
59194;BME280;44967;48.598;15.650;2023-09-07T11:27:03;98846.97;;;29.27;29.76
59194;BME280;44967;48.598;15.650;2023-09-07T11:29:32;98846.50;;;28.94;30.50
59194;BME280;44967;48.598;15.650;2023-09-07T11:32:11;98844.50;;;28.96;30.13
59194;BME280;44967;48.598;15.650;2023-09-07T11:34:50;98837.84;;;29.09;30.01
59194;BME280;44967;48.598;15.650;2023-09-07T11:37:17;98843.25;;;28.91;30.28
59194;BME280;44967;48.598;15.650;2023-09-07T11:39:43;98840.41;;;28.73;30.73
59194;BME280;44967;48.598;15.650;2023-09-07T11:42:09;98847.59;;;28.55;31.05
59194;BME280;44967;48.598;15.650;2023-09-07T11:44:35;98835.97;;;28.72;31.43
59194;BME280;44967;48.598;15.650;2023-09-07T11:47:01;98841.28;;;28.45;31.26
59194;BME280;44967;48.598;15.650;2023-09-07T11:49:26;98847.41;;;28.66;31.12
59194;BME280;44967;48.598;15.650;2023-09-07T11:51:52;98844.00;;;28.64;30.67
59194;BME280;44967;48.598;15.650;2023-09-07T11:54:18;98843.63;;;28.40;30.79
59194;BME280;44967;48.598;15.650;2023-09-07T11:56:44;98841.16;;;28.37;30.91
59194;BME280;44967;48.598;15.650;2023-09-07T11:59:11;98851.19;;;28.27;30.99
59194;BME280;44967;48.598;15.650;2023-09-07T12:01:36;98842.19;;;28.26;31.61
59194;BME280;44967;48.598;15.650;2023-09-07T12:04:05;98838.19;;;28.40;31.09
59194;BME280;44967;48.598;15.650;2023-09-07T12:06:32;98834.44;;;28.41;31.23
59194;BME280;44967;48.598;15.650;2023-09-07T12:09:02;98841.16;;;28.37;31.83
59194;BME280;44967;48.598;15.650;2023-09-07T12:11:28;98839.13;;;28.58;31.32
59194;BME280;44967;48.598;15.650;2023-09-07T12:13:54;98838.19;;;28.40;31.06
59194;BME280;44967;48.598;15.650;2023-09-07T12:16:20;98833.47;;;28.32;31.06
59194;BME280;44967;48.598;15.650;2023-09-07T12:18:46;98832.31;;;28.44;31.13
59194;BME280;44967;48.598;15.650;2023-09-07T12:21:12;98832.59;;;28.32;31.99
59194;BME280;44967;48.598;15.650;2023-09-07T12:23:37;98822.00;;;28.48;31.46
59194;BME280;44967;48.598;15.650;2023-09-07T12:26:03;98832.53;;;28.61;31.08
59194;BME280;44967;48.598;15.650;2023-09-07T12:28:32;98825.53;;;28.58;31.25
59194;BME280;44967;48.598;15.650;2023-09-07T12:30:58;98813.78;;;28.57;30.99
59194;BME280;44967;48.598;15.650;2023-09-07T12:33:26;98823.56;;;28.41;31.44
59194;BME280;44967;48.598;15.650;2023-09-07T12:35:54;98819.13;;;28.40;32.04
59194;BME280;44967;48.598;15.650;2023-09-07T12:38:20;98830.28;;;28.37;31.51
59194;BME280;44967;48.598;15.650;2023-09-07T12:40:50;98822.56;;;28.42;31.50
59194;BME280;44967;48.598;15.650;2023-09-07T12:43:15;98818.53;;;28.46;31.59
59194;BME280;44967;48.598;15.650;2023-09-07T12:45:41;98811.69;;;28.42;31.69
59194;BME280;44967;48.598;15.650;2023-09-07T12:48:07;98813.28;;;28.44;32.07